Time;durP1;ratioP1;P1;durP2;ratioP2;P2;SDS_P1;SDS_P2;PMS_P1;PMS_P2;Temp;Humidity;BMP_temperature;BMP_pressure;BME280_temperature;BME280_humidity;BME280_pressure;Samples;Min_cycle;Max_cycle;Signal;HPM_P1;HPM_P2
2022/04/16 00:00:57;;;;;;;0.30;0.30;;;5.20;99.90;;;;;;4434417;32;20432;-69
2022/04/16 00:03:24;;;;;;;0.47;0.47;;;5.10;99.90;;;;;;4431274;32;20081;-70
2022/04/16 00:05:53;;;;;;;0.45;0.45;;;5.10;99.90;;;;;;4432233;32;20065;-69
2022/04/16 00:08:20;;;;;;;0.35;0.35;;;5.10;99.90;;;;;;4431003;32;20216;-69
2022/04/16 00:10:47;;;;;;;0.50;0.50;;;5.10;99.90;;;;;;4432334;32;20065;-69
2022/04/16 00:13:14;;;;;;;0.30;0.30;;;5.10;99.90;;;;;;4434611;32;20085;-69
2022/04/16 00:15:40;;;;;;;2.53;1.48;;;5.10;99.90;;;;;;4432787;32;20061;-69
2022/04/16 00:18:05;;;;;;;0.35;0.35;;;5.10;99.90;;;;;;4433315;32;20119;-69
2022/04/16 00:20:31;;;;;;;0.30;0.30;;;5.20;99.90;;;;;;4433772;32;20081;-69
2022/04/16 00:22:57;;;;;;;0.30;0.30;;;5.20;99.90;;;;;;4432014;32;20136;-69
2022/04/16 00:25:23;;;;;;;0.40;0.40;;;5.20;99.90;;;;;;4432955;32;20077;-69
2022/04/16 00:27:49;;;;;;;1.17;0.70;;;5.20;99.90;;;;;;4431614;32;20167;-69
2022/04/16 00:30:17;;;;;;;0.40;0.40;;;5.20;99.90;;;;;;4432782;32;20525;-69
2022/04/16 00:32:44;;;;;;;0.30;0.30;;;5.30;99.90;;;;;;4431557;32;20056;-69
2022/04/16 00:35:09;;;;;;;0.40;0.40;;;5.20;99.90;;;;;;4435492;32;20093;-69
2022/04/16 00:37:35;;;;;;;0.40;0.40;;;5.00;99.90;;;;;;4437175;32;20107;-69
2022/04/16 00:40:00;;;;;;;2.85;1.10;;;5.10;99.90;;;;;;4430126;32;20097;-69
2022/04/16 00:42:37;;;;;;;0.30;0.30;;;5.20;99.90;;;;;;4433515;32;20092;-69
2022/04/16 00:45:03;;;;;;;0.30;0.30;;;5.20;99.90;;;;;;4430170;32;20069;-69
2022/04/16 00:47:28;;;;;;;0.30;0.30;;;5.10;99.90;;;;;;4432784;32;20078;-70
2022/04/16 00:49:54;;;;;;;0.35;0.35;;;5.10;99.90;;;;;;4434131;32;20066;-69
2022/04/16 00:52:21;;;;;;;0.30;0.30;;;5.00;99.90;;;;;;4430795;32;20105;-69
2022/04/16 00:54:48;;;;;;;0.30;0.30;;;5.00;99.90;;;;;;4435585;32;20084;-69
2022/04/16 00:57:14;;;;;;;0.40;0.40;;;4.90;99.90;;;;;;4431904;32;20069;-69
2022/04/16 00:59:39;;;;;;;0.30;0.30;;;5.10;99.90;;;;;;4433463;32;20128;-69
2022/04/16 01:02:08;;;;;;;0.40;0.40;;;5.10;99.90;;;;;;4430969;32;20065;-69
2022/04/16 01:04:33;;;;;;;1.45;0.88;;;5.00;99.90;;;;;;4433756;32;20089;-69
2022/04/16 01:06:59;;;;;;;0.30;0.30;;;5.00;99.90;;;;;;4433635;32;20544;-69
2022/04/16 01:09:24;;;;;;;0.30;0.30;;;4.90;99.90;;;;;;4432323;32;20089;-70
2022/04/16 01:11:50;;;;;;;1.30;0.77;;;4.90;99.90;;;;;;4429330;32;20180;-69
2022/04/16 01:14:19;;;;;;;0.40;0.40;;;4.90;99.90;;;;;;4429052;32;20289;-69
2022/04/16 01:16:45;;;;;;;0.32;0.32;;;4.80;99.90;;;;;;4433826;32;20093;-69
2022/04/16 01:19:11;;;;;;;0.40;0.40;;;4.80;99.90;;;;;;4433580;32;20042;-69
2022/04/16 01:21:37;;;;;;;0.30;0.30;;;4.80;99.90;;;;;;4430312;32;20082;-69
2022/04/16 01:24:05;;;;;;;0.30;0.30;;;4.80;99.90;;;;;;4430000;32;20078;-69
2022/04/16 01:26:31;;;;;;;0.20;0.20;;;4.80;99.90;;;;;;4431877;32;20129;-69
2022/04/16 01:28:57;;;;;;;0.30;0.30;;;4.80;99.90;;;;;;4429778;32;20093;-69
2022/04/16 01:31:22;;;;;;;0.40;0.40;;;4.80;99.90;;;;;;4426964;32;20653;-69
2022/04/16 01:33:47;;;;;;;0.30;0.30;;;4.70;99.90;;;;;;4430685;32;20073;-69
2022/04/16 01:36:13;;;;;;;0.30;0.30;;;4.60;99.90;;;;;;4433505;32;20135;-70
2022/04/16 01:38:39;;;;;;;0.30;0.30;;;4.60;99.90;;;;;;4431582;32;20082;-69
2022/04/16 01:41:04;;;;;;;0.30;0.30;;;4.60;99.90;;;;;;4433500;32;20578;-69
2022/04/16 01:43:30;;;;;;;0.32;0.32;;;4.60;99.90;;;;;;4432197;32;20124;-69
2022/04/16 01:45:56;;;;;;;0.30;0.30;;;4.50;99.90;;;;;;4432756;32;20451;-69
2022/04/16 01:48:27;;;;;;;0.30;0.30;;;4.40;99.90;;;;;;4433482;32;20172;-69
2022/04/16 01:50:53;;;;;;;0.30;0.30;;;4.50;99.90;;;;;;4432314;32;20605;-69
2022/04/16 01:53:19;;;;;;;0.30;0.30;;;4.60;99.90;;;;;;4432362;32;20077;-69
2022/04/16 01:55:45;;;;;;;0.20;0.20;;;4.50;99.90;;;;;;4435327;32;20122;-69
2022/04/16 01:58:11;;;;;;;0.30;0.30;;;4.50;99.90;;;;;;4432417;32;20423;-69
2022/04/16 02:00:37;;;;;;;0.30;0.30;;;4.50;99.90;;;;;;4430915;32;20136;-69
2022/04/16 02:03:02;;;;;;;0.25;0.25;;;4.60;99.90;;;;;;4428476;32;20605;-69
2022/04/16 02:05:28;;;;;;;0.30;0.30;;;4.70;99.90;;;;;;4431324;32;20057;-69
2022/04/16 02:07:54;;;;;;;0.30;0.30;;;4.70;99.90;;;;;;4429955;32;20130;-69
2022/04/16 02:10:19;;;;;;;0.30;0.30;;;4.60;99.90;;;;;;4432539;32;20094;-69
2022/04/16 02:12:45;;;;;;;0.30;0.30;;;4.40;99.90;;;;;;4429084;32;20492;-69
2022/04/16 02:15:12;;;;;;;0.35;0.35;;;4.40;99.90;;;;;;4425637;32;20080;-70
2022/04/16 02:17:38;;;;;;;0.30;0.30;;;4.30;99.90;;;;;;4434041;32;20082;-69
2022/04/16 02:20:06;;;;;;;0.30;0.30;;;4.20;99.90;;;;;;4431572;32;20103;-69
2022/04/16 02:22:42;;;;;;;6.40;2.05;;;4.20;99.90;;;;;;4433969;32;20418;-68
2022/04/16 02:25:08;;;;;;;1.30;1.17;;;4.20;99.90;;;;;;4432082;32;20089;-70
2022/04/16 02:27:35;;;;;;;2.30;0.68;;;4.10;99.90;;;;;;4427983;32;20450;-69
2022/04/16 02:30:03;;;;;;;0.30;0.30;;;4.20;99.90;;;;;;4431225;32;20131;-69
2022/04/16 02:32:29;;;;;;;0.20;0.20;;;4.20;99.90;;;;;;4429839;32;20133;-69
2022/04/16 02:34:56;;;;;;;0.30;0.30;;;4.20;99.90;;;;;;4430274;32;20077;-69
2022/04/16 02:37:22;;;;;;;0.40;0.40;;;4.20;99.90;;;;;;4427719;32;20082;-69
2022/04/16 02:39:47;;;;;;;0.30;0.30;;;4.30;99.90;;;;;;4427971;32;20070;-69
2022/04/16 02:42:13;;;;;;;3.40;0.88;;;4.30;99.90;;;;;;4430253;32;20069;-68
2022/04/16 02:47:13;;;;;;;1.75;0.73;;;4.40;99.90;;;;;;4431993;32;20472;-70
2022/04/16 02:47:24;;;;;;;0.40;0.40;;;4.50;99.90;;;;;;4427223;32;20069;-69
2022/04/16 02:49:50;;;;;;;0.30;0.30;;;4.50;99.90;;;;;;4432243;32;20137;-69
2022/04/16 02:52:15;;;;;;;0.25;0.25;;;4.50;99.90;;;;;;4432445;32;20069;-69
2022/04/16 02:54:41;;;;;;;0.30;0.30;;;4.60;99.90;;;;;;4427722;32;20490;-69
2022/04/16 02:57:07;;;;;;;0.20;0.20;;;4.50;99.90;;;;;;4429704;32;20085;-70
2022/04/16 02:59:35;;;;;;;0.40;0.40;;;4.50;99.90;;;;;;4432097;32;20078;-70
2022/04/16 03:02:00;;;;;;;0.35;0.35;;;4.50;99.90;;;;;;4435319;32;20090;-69
2022/04/16 03:04:26;;;;;;;1.45;1.00;;;4.50;99.90;;;;;;4432565;32;20517;-69
2022/04/16 03:06:52;;;;;;;0.40;0.40;;;4.60;99.90;;;;;;4432040;32;20073;-69
2022/04/16 03:09:18;;;;;;;0.30;0.30;;;4.60;99.90;;;;;;4425319;32;20089;-68
2022/04/16 03:11:43;;;;;;;1.33;0.70;;;4.70;99.90;;;;;;4432823;32;20084;-68
2022/04/16 03:17:55;;;;;;;0.30;0.30;;;4.60;99.90;;;;;;4422933;32;20066;-69
2022/04/16 03:19:40;;;;;;;0.35;0.35;;;4.70;99.90;;;;;;4435139;32;20094;-69
2022/04/16 03:22:05;;;;;;;0.50;0.50;;;4.70;99.90;;;;;;4430262;32;20061;-69
2022/04/16 03:24:32;;;;;;;0.32;0.32;;;4.70;99.90;;;;;;4429061;32;20080;-69
2022/04/16 03:26:57;;;;;;;0.30;0.30;;;4.80;99.90;;;;;;4429238;32;20169;-69
2022/04/16 03:29:23;;;;;;;0.37;0.37;;;4.70;99.90;;;;;;4432156;32;20206;-69
2022/04/16 03:31:48;;;;;;;0.30;0.30;;;4.70;99.90;;;;;;4432295;32;20085;-70
2022/04/16 03:34:14;;;;;;;0.40;0.40;;;4.70;99.90;;;;;;4435597;32;20097;-69
2022/04/16 03:36:39;;;;;;;0.30;0.30;;;4.70;99.90;;;;;;4429667;32;20097;-69
2022/04/16 03:39:04;;;;;;;0.40;0.40;;;4.70;99.90;;;;;;4437838;32;20583;-69
2022/04/16 03:41:30;;;;;;;0.30;0.30;;;4.70;99.90;;;;;;4430826;32;20072;-68
2022/04/16 03:43:56;;;;;;;0.45;0.45;;;4.80;99.90;;;;;;4433940;32;20069;-69
2022/04/16 03:46:22;;;;;;;0.30;0.30;;;4.80;99.90;;;;;;4436317;32;20065;-69
2022/04/16 03:48:48;;;;;;;0.30;0.30;;;4.70;99.90;;;;;;4430720;32;20097;-68
2022/04/16 03:51:13;;;;;;;1.50;0.65;;;4.70;99.90;;;;;;4434161;32;20460;-68
2022/04/16 03:53:39;;;;;;;0.32;0.32;;;4.80;99.90;;;;;;4435823;32;20072;-68
2022/04/16 04:00:17;;;;;;;0.47;0.45;;;4.70;99.90;;;;;;4423372;32;20561;-69
2022/04/16 04:01:35;;;;;;;0.22;0.22;;;4.60;99.90;;;;;;4427033;32;20085;-69
2022/04/16 04:04:01;;;;;;;0.50;0.47;;;4.60;99.90;;;;;;4434701;32;20069;-69
2022/04/16 04:06:27;;;;;;;1.65;1.20;;;4.60;99.90;;;;;;4432241;32;20084;-69
2022/04/16 04:08:52;;;;;;;0.82;0.82;;;4.60;99.90;;;;;;4431825;32;20113;-68
2022/04/16 04:11:17;;;;;;;0.45;0.45;;;4.50;99.90;;;;;;4431263;32;20081;-69
2022/04/16 04:13:43;;;;;;;0.40;0.40;;;4.60;99.90;;;;;;4428432;32;20070;-69
2022/04/16 04:16:08;;;;;;;2.05;0.60;;;4.70;99.90;;;;;;4433592;32;20066;-69
2022/04/16 04:18:34;;;;;;;0.40;0.40;;;4.70;99.90;;;;;;4429802;32;20073;-70
2022/04/16 04:20:59;;;;;;;0.93;0.90;;;4.70;99.90;;;;;;4432490;32;20101;-69
2022/04/16 04:23:25;;;;;;;0.30;0.30;;;4.80;99.90;;;;;;4430094;32;20065;-69
2022/04/16 04:25:51;;;;;;;0.32;0.32;;;4.70;99.90;;;;;;4429900;32;20062;-69
2022/04/16 04:28:17;;;;;;;0.30;0.30;;;4.80;99.90;;;;;;4431462;32;20069;-70
2022/04/16 04:30:42;;;;;;;0.45;0.45;;;4.90;99.90;;;;;;4433885;32;20065;-69
2022/04/16 04:33:08;;;;;;;0.43;0.43;;;4.80;99.90;;;;;;4429054;32;20077;-69
2022/04/16 04:35:33;;;;;;;0.32;0.32;;;4.90;99.90;;;;;;4429943;32;20122;-69
2022/04/16 04:37:59;;;;;;;3.28;1.02;;;4.80;99.90;;;;;;4431137;32;20096;-69
2022/04/16 04:40:24;;;;;;;0.30;0.30;;;4.70;99.90;;;;;;4431960;32;20481;-69
2022/04/16 04:42:50;;;;;;;0.85;0.77;;;4.70;99.90;;;;;;4429261;32;20074;-69
2022/04/16 04:45:16;;;;;;;1.87;0.85;;;4.70;99.90;;;;;;4431431;32;20074;-69
2022/04/16 04:47:42;;;;;;;0.55;0.50;;;4.80;99.90;;;;;;4429310;32;20132;-69
2022/04/16 04:50:08;;;;;;;0.30;0.30;;;4.80;99.90;;;;;;4430677;32;20069;-69
2022/04/16 04:52:36;;;;;;;0.30;0.30;;;4.80;99.90;;;;;;4430452;32;20069;-69
2022/04/16 04:55:03;;;;;;;0.60;0.60;;;4.80;99.90;;;;;;4429823;32;20074;-69
2022/04/16 04:57:28;;;;;;;1.50;0.85;;;4.90;99.90;;;;;;4431631;32;20085;-69
2022/04/16 04:59:54;;;;;;;0.30;0.30;;;4.90;99.90;;;;;;4426390;32;20066;-69
2022/04/16 05:02:20;;;;;;;0.40;0.40;;;4.90;99.90;;;;;;4433088;32;20094;-69
2022/04/16 05:04:46;;;;;;;0.30;0.30;;;5.00;99.90;;;;;;4433333;32;20085;-69
2022/04/16 05:07:12;;;;;;;0.73;0.73;;;5.00;99.90;;;;;;4437789;32;20096;-69
2022/04/16 05:09:37;;;;;;;0.30;0.30;;;5.00;99.90;;;;;;4434102;32;20069;-69
2022/04/16 05:12:04;;;;;;;0.40;0.40;;;5.00;99.90;;;;;;4435088;32;20165;-69
2022/04/16 05:14:30;;;;;;;0.30;0.30;;;5.10;99.90;;;;;;4432053;32;20145;-69
2022/04/16 05:16:55;;;;;;;1.20;1.10;;;5.20;99.90;;;;;;4433276;32;20093;-69
2022/04/16 05:19:21;;;;;;;0.30;0.30;;;5.10;99.90;;;;;;4433282;32;20550;-69
2022/04/16 05:21:46;;;;;;;0.40;0.40;;;5.10;99.90;;;;;;4426953;32;20065;-69
2022/04/16 05:24:12;;;;;;;0.30;0.30;;;5.10;99.90;;;;;;4432641;32;20119;-69
2022/04/16 05:26:38;;;;;;;1.05;0.60;;;5.00;99.90;;;;;;4434833;32;20081;-69
2022/04/16 05:29:04;;;;;;;0.40;0.40;;;5.00;99.90;;;;;;4430128;32;20085;-69
2022/04/16 05:31:30;;;;;;;0.32;0.32;;;5.00;99.90;;;;;;4431397;32;20420;-69
2022/04/16 05:34:28;;;;;;;4.62;1.10;;;5.00;99.90;;;;;;4435108;32;20460;-69
2022/04/16 05:36:43;;;;;;;0.40;0.40;;;5.00;99.90;;;;;;4430597;32;20089;-70
2022/04/16 05:39:09;;;;;;;0.30;0.30;;;5.10;99.90;;;;;;4433531;32;20081;-69
2022/04/16 05:41:35;;;;;;;1.25;0.85;;;5.10;99.90;;;;;;4434282;32;20097;-69
2022/04/16 05:44:01;;;;;;;0.30;0.30;;;5.30;99.90;;;;;;4432208;32;20116;-69
2022/04/16 05:46:27;;;;;;;0.60;0.60;;;5.30;99.90;;;;;;4431175;32;20069;-69
2022/04/16 05:48:52;;;;;;;0.93;0.55;;;5.30;99.90;;;;;;4436745;32;20085;-69
2022/04/16 05:51:19;;;;;;;0.37;0.37;;;5.40;99.90;;;;;;4433661;32;20065;-69
2022/04/16 05:53:49;;;;;;;0.30;0.30;;;5.30;99.90;;;;;;4434959;32;20061;-69
2022/04/16 05:56:15;;;;;;;0.62;0.62;;;5.50;99.90;;;;;;4431396;32;20082;-69
2022/04/16 05:58:42;;;;;;;0.30;0.30;;;5.50;99.90;;;;;;4432203;32;20076;-70
2022/04/16 06:01:08;;;;;;;0.62;0.62;;;5.50;99.90;;;;;;4428758;32;20501;-70
2022/04/16 06:03:36;;;;;;;0.40;0.40;;;5.40;99.90;;;;;;4433099;32;21741;-69
2022/04/16 06:06:02;;;;;;;0.35;0.35;;;5.50;99.90;;;;;;4429107;32;20513;-68
2022/04/16 06:08:28;;;;;;;2.83;0.55;;;5.50;99.90;;;;;;4432201;32;20069;-70
2022/04/16 06:10:53;;;;;;;0.30;0.30;;;5.60;99.90;;;;;;4432709;32;20068;-69
2022/04/16 06:13:19;;;;;;;0.68;0.50;;;5.70;99.90;;;;;;4435619;32;20073;-69
2022/04/16 06:15:44;;;;;;;0.52;0.50;;;5.70;99.90;;;;;;4435991;32;20503;-69
2022/04/16 06:18:10;;;;;;;0.32;0.32;;;5.70;99.90;;;;;;4433913;32;20065;-69
2022/04/16 06:20:37;;;;;;;0.30;0.30;;;5.80;99.90;;;;;;4431302;32;20464;-69
2022/04/16 06:23:03;;;;;;;0.30;0.30;;;6.00;99.90;;;;;;4429542;32;20062;-68
2022/04/16 06:25:29;;;;;;;1.98;0.70;;;6.00;99.90;;;;;;4430796;32;20069;-69
2022/04/16 06:27:55;;;;;;;0.40;0.40;;;5.90;99.90;;;;;;4433315;32;20089;-69
2022/04/16 06:30:20;;;;;;;0.45;0.45;;;5.90;99.90;;;;;;4430000;32;20073;-68
2022/04/16 06:32:46;;;;;;;0.57;0.57;;;5.90;99.90;;;;;;4434146;32;20074;-69
2022/04/16 06:35:12;;;;;;;0.40;0.40;;;6.10;99.90;;;;;;4429044;32;20147;-69
2022/04/16 06:37:38;;;;;;;4.28;1.48;;;6.10;99.90;;;;;;4431341;32;20076;-69
2022/04/16 06:40:06;;;;;;;0.93;0.88;;;6.20;99.90;;;;;;4430643;32;20085;-69
2022/04/16 06:42:32;;;;;;;0.40;0.40;;;6.20;99.90;;;;;;4430333;32;20621;-69
2022/04/16 06:44:57;;;;;;;0.35;0.35;;;6.20;99.90;;;;;;4431284;32;20081;-69
2022/04/16 06:47:23;;;;;;;0.40;0.40;;;6.20;99.90;;;;;;4432471;32;20070;-69
2022/04/16 06:49:49;;;;;;;0.37;0.37;;;6.10;99.90;;;;;;4431186;32;20068;-69
2022/04/16 06:52:17;;;;;;;0.30;0.30;;;6.10;99.90;;;;;;4431014;32;20077;-69
2022/04/16 06:54:43;;;;;;;0.40;0.40;;;6.10;99.90;;;;;;4431769;32;20073;-69
2022/04/16 06:57:08;;;;;;;4.70;1.12;;;6.10;99.90;;;;;;4434768;32;20113;-68
2022/04/16 06:59:34;;;;;;;0.30;0.30;;;6.10;99.90;;;;;;4430379;32;20086;-69
2022/04/16 07:01:59;;;;;;;0.30;0.30;;;6.20;99.90;;;;;;4431599;32;20066;-68
2022/04/16 07:04:25;;;;;;;0.40;0.40;;;6.20;99.90;;;;;;4428348;32;20535;-68
2022/04/16 07:06:50;;;;;;;0.30;0.30;;;6.10;99.90;;;;;;4430823;32;20093;-70
2022/04/16 07:09:16;;;;;;;0.40;0.40;;;6.20;99.90;;;;;;4432758;32;20088;-69
2022/04/16 07:11:42;;;;;;;0.30;0.30;;;6.10;99.90;;;;;;4434068;32;20066;-69
2022/04/16 07:14:08;;;;;;;0.68;0.68;;;6.10;99.90;;;;;;4430146;32;20360;-69
2022/04/16 07:16:33;;;;;;;0.40;0.40;;;6.30;99.90;;;;;;4430422;32;20057;-69
2022/04/16 07:18:59;;;;;;;0.85;0.75;;;6.50;99.90;;;;;;4431803;32;20089;-69
2022/04/16 07:21:24;;;;;;;0.37;0.37;;;6.50;99.90;;;;;;4435856;32;20061;-69
2022/04/16 07:23:49;;;;;;;0.35;0.35;;;6.50;99.90;;;;;;4428885;32;20975;-70
2022/04/16 07:26:15;;;;;;;0.43;0.43;;;6.40;99.90;;;;;;4430854;32;20073;-70
2022/04/16 07:28:40;;;;;;;0.40;0.40;;;6.40;99.90;;;;;;4429610;32;20450;-70
2022/04/16 07:31:06;;;;;;;0.30;0.30;;;6.50;99.90;;;;;;4430862;32;20189;-69
2022/04/16 07:33:31;;;;;;;0.20;0.20;;;6.50;99.90;;;;;;4430982;32;20078;-69
2022/04/16 07:35:57;;;;;;;0.93;0.90;;;6.70;99.90;;;;;;4428353;32;88362;-69
2022/04/16 07:38:23;;;;;;;0.30;0.30;;;6.80;99.90;;;;;;4431175;32;20061;-70
2022/04/16 07:40:48;;;;;;;0.40;0.40;;;7.00;99.90;;;;;;4430037;32;20053;-70
2022/04/16 07:43:15;;;;;;;2.95;1.62;;;7.10;99.90;;;;;;4432582;32;20129;-69
2022/04/16 07:45:41;;;;;;;0.30;0.30;;;7.30;99.90;;;;;;4430399;32;20485;-70
2022/04/16 07:48:08;;;;;;;0.40;0.40;;;7.40;99.90;;;;;;4430061;32;20061;-70
2022/04/16 07:50:33;;;;;;;0.30;0.30;;;7.40;99.90;;;;;;4432474;32;20128;-69
2022/04/16 07:52:59;;;;;;;0.30;0.30;;;7.60;99.90;;;;;;4436180;32;20725;-70
2022/04/16 07:55:27;;;;;;;0.30;0.30;;;7.70;99.90;;;;;;4434211;32;20084;-70
2022/04/16 07:57:53;;;;;;;0.35;0.35;;;7.90;99.90;;;;;;4432343;32;20081;-69
2022/04/16 08:00:20;;;;;;;0.37;0.37;;;8.10;99.90;;;;;;4430122;32;20134;-69
2022/04/16 08:02:46;;;;;;;0.55;0.55;;;8.30;99.90;;;;;;4434084;32;20061;-69
2022/04/16 08:05:11;;;;;;;4.18;0.77;;;8.50;99.90;;;;;;4431164;32;20081;-70
2022/04/16 08:07:37;;;;;;;0.47;0.45;;;8.50;99.90;;;;;;4432635;32;20053;-69
2022/04/16 08:10:04;;;;;;;2.60;0.82;;;8.60;99.90;;;;;;4429495;32;20074;-69
2022/04/16 08:12:29;;;;;;;0.22;0.22;;;8.60;99.90;;;;;;4433291;32;20124;-70
2022/04/16 08:14:55;;;;;;;0.55;0.55;;;8.40;99.90;;;;;;4433842;32;20533;-70
2022/04/16 08:17:21;;;;;;;0.35;0.35;;;8.50;99.90;;;;;;4432769;32;20131;-70
2022/04/16 08:19:47;;;;;;;0.40;0.40;;;8.60;99.90;;;;;;4432229;32;20421;-71
2022/04/16 08:22:18;;;;;;;0.35;0.35;;;8.70;99.90;;;;;;4432900;32;20486;-70
2022/04/16 08:24:54;;;;;;;0.30;0.30;;;8.70;99.90;;;;;;4431051;32;20518;-70
2022/04/16 08:27:21;;;;;;;0.30;0.30;;;8.50;99.90;;;;;;4428293;32;20105;-69
2022/04/16 08:29:46;;;;;;;0.47;0.47;;;8.50;99.90;;;;;;4429210;32;20055;-69
2022/04/16 08:32:12;;;;;;;0.30;0.30;;;8.60;99.90;;;;;;4437226;32;20138;-69
2022/04/16 08:34:38;;;;;;;0.43;0.35;;;8.70;99.90;;;;;;4433354;32;20077;-69
2022/04/16 08:37:03;;;;;;;2.60;0.73;;;8.80;99.90;;;;;;4436301;32;20096;-69
2022/04/16 08:39:29;;;;;;;0.37;0.37;;;8.90;99.90;;;;;;4433879;32;20085;-69
2022/04/16 08:41:56;;;;;;;0.30;0.30;;;9.10;99.90;;;;;;4432536;32;20066;-69
2022/04/16 08:44:25;;;;;;;0.62;0.60;;;9.20;99.90;;;;;;4433504;32;20128;-69
2022/04/16 08:46:52;;;;;;;1.30;1.00;;;9.40;99.90;;;;;;4436079;32;20152;-69
2022/04/16 08:49:19;;;;;;;0.40;0.40;;;9.40;99.90;;;;;;4433826;32;20461;-70
2022/04/16 08:51:46;;;;;;;0.40;0.40;;;9.50;99.90;;;;;;4432336;32;20061;-69
2022/04/16 08:54:12;;;;;;;0.30;0.30;;;9.50;99.90;;;;;;4436252;32;20061;-69
2022/04/16 08:56:39;;;;;;;0.40;0.40;;;9.60;99.90;;;;;;4432995;32;20134;-68
2022/04/16 08:59:04;;;;;;;0.30;0.30;;;9.60;99.90;;;;;;4432557;32;20081;-69
2022/04/16 09:01:30;;;;;;;0.30;0.30;;;9.70;99.90;;;;;;4430695;32;20129;-70
2022/04/16 09:03:58;;;;;;;0.68;0.50;;;9.90;99.90;;;;;;4431300;32;20065;-70
2022/04/16 09:06:24;;;;;;;0.40;0.40;;;10.10;99.90;;;;;;4434285;32;20065;-70
2022/04/16 09:08:50;;;;;;;0.30;0.30;;;10.40;99.90;;;;;;4432313;32;20065;-70
2022/04/16 09:11:22;;;;;;;0.45;0.45;;;10.80;99.90;;;;;;4431686;32;20123;-70
2022/04/16 09:13:53;;;;;;;0.40;0.40;;;10.90;99.90;;;;;;4430971;32;20078;-70
2022/04/16 09:16:19;;;;;;;0.50;0.50;;;10.90;99.90;;;;;;4434660;32;20554;-70
2022/04/16 09:18:50;;;;;;;0.32;0.32;;;11.10;99.90;;;;;;4432902;32;20057;-70
2022/04/16 09:21:16;;;;;;;;;;;11.10;99.90;;;;;;4434545;32;20074;-70
2022/04/16 09:23:52;;;;;;;0.93;0.68;;;11.20;98.90;;;;;;4434352;32;19944;-70
2022/04/16 09:26:35;;;;;;;0.40;0.40;;;11.20;97.30;;;;;;4434038;32;20062;-70
2022/04/16 09:29:09;;;;;;;0.40;0.40;;;11.40;99.10;;;;;;4431131;32;20586;-70
2022/04/16 09:31:38;;;;;;;0.20;0.20;;;11.70;98.30;;;;;;4432932;32;20437;-70
2022/04/16 09:34:04;;;;;;;0.45;0.45;;;12.20;97.00;;;;;;4433219;32;20078;-70
2022/04/16 09:36:30;;;;;;;0.37;0.37;;;11.90;95.70;;;;;;4433474;32;20175;-69
2022/04/16 09:39:04;;;;;;;0.30;0.30;;;11.80;94.20;;;;;;4430552;32;20131;-69
2022/04/16 09:41:36;;;;;;;0.40;0.40;;;11.70;95.40;;;;;;4432823;32;20076;-70
2022/04/16 09:44:02;;;;;;;0.32;0.32;;;11.90;94.00;;;;;;4433641;32;20078;-70
2022/04/16 09:46:30;;;;;;;0.37;0.37;;;12.10;94.20;;;;;;4435544;32;20080;-70
2022/04/16 09:49:02;;;;;;;0.40;0.40;;;12.30;94.20;;;;;;4432601;32;20446;-69
2022/04/16 09:51:29;;;;;;;0.22;0.22;;;12.50;93.10;;;;;;4436110;32;20085;-70
2022/04/16 09:53:56;;;;;;;0.30;0.30;;;12.70;93.20;;;;;;4430433;32;20093;-70
2022/04/16 09:56:24;;;;;;;0.45;0.45;;;12.90;93.30;;;;;;4432234;32;20077;-70
2022/04/16 09:58:52;;;;;;;0.65;0.65;;;13.10;92.60;;;;;;4437223;32;20081;-70
2022/04/16 10:01:22;;;;;;;0.40;0.40;;;13.10;91.90;;;;;;4435871;32;20395;-70
2022/04/16 10:03:49;;;;;;;0.40;0.40;;;13.30;91.80;;;;;;4430954;32;20144;-70
2022/04/16 10:06:16;;;;;;;0.40;0.40;;;13.20;91.50;;;;;;4432484;32;20077;-70
2022/04/16 10:08:41;;;;;;;0.40;0.40;;;13.40;91.20;;;;;;4432947;32;20061;-69
2022/04/16 10:11:08;;;;;;;0.43;0.43;;;13.30;91.30;;;;;;4434799;32;20133;-69
2022/04/16 10:13:40;;;;;;;0.43;0.43;;;13.40;91.40;;;;;;4432281;32;20054;-70
2022/04/16 10:16:13;;;;;;;0.65;0.65;;;13.40;90.30;;;;;;4436214;32;20053;-70
2022/04/16 10:18:40;;;;;;;0.37;0.37;;;13.50;88.50;;;;;;4438718;32;20078;-69
2022/04/16 10:21:14;;;;;;;0.30;0.30;;;13.70;85.30;;;;;;4430619;32;20066;-69
2022/04/16 10:23:40;;;;;;;0.30;0.30;;;13.90;84.70;;;;;;4435923;32;20108;-69
2022/04/16 10:26:09;;;;;;;0.30;0.30;;;13.90;86.60;;;;;;4435895;32;20069;-69
2022/04/16 10:28:40;;;;;;;2.42;0.75;;;13.90;85.50;;;;;;4433183;32;20057;-70
2022/04/16 10:31:18;;;;;;;0.40;0.40;;;14.30;84.50;;;;;;4436409;32;20086;-69
2022/04/16 10:33:56;;;;;;;0.40;0.40;;;14.40;86.40;;;;;;4425147;32;20541;-69
2022/04/16 10:36:25;;;;;;;0.45;0.45;;;14.70;84.40;;;;;;4438272;32;20123;-69
2022/04/16 10:38:51;;;;;;;0.40;0.40;;;14.80;82.90;;;;;;4426499;32;20467;-69
2022/04/16 10:41:21;;;;;;;0.30;0.30;;;14.70;83.70;;;;;;4434868;32;20128;-69
2022/04/16 10:43:55;;;;;;;0.40;0.40;;;14.50;83.20;;;;;;4429864;32;20160;-69
2022/04/16 10:46:21;;;;;;;0.43;0.43;;;14.70;82.70;;;;;;4434772;32;20187;-69
2022/04/16 10:48:49;;;;;;;0.40;0.40;;;14.70;83.80;;;;;;4427695;32;20080;-69
2022/04/16 10:51:20;;;;;;;0.40;0.40;;;14.90;80.40;;;;;;4441686;32;20058;-69
2022/04/16 10:53:46;;;;;;;0.30;0.30;;;15.10;80.10;;;;;;4431797;32;20118;-68
2022/04/16 10:56:13;;;;;;;1.17;1.08;;;15.20;76.00;;;;;;4436221;32;20068;-69
2022/04/16 10:58:40;;;;;;;0.40;0.40;;;15.40;78.20;;;;;;4431668;32;20082;-68
2022/04/16 11:01:08;;;;;;;0.40;0.40;;;15.80;76.90;;;;;;4434321;32;20150;-68
2022/04/16 11:03:41;;;;;;;0.40;0.40;;;15.70;77.50;;;;;;4438418;32;20552;-69
2022/04/16 11:06:08;;;;;;;0.30;0.30;;;15.90;75.70;;;;;;4434480;32;20125;-70
2022/04/16 11:08:34;;;;;;;0.40;0.40;;;16.00;76.40;;;;;;4436810;32;20093;-69
2022/04/16 11:11:02;;;;;;;0.50;0.50;;;16.10;76.20;;;;;;4437713;32;20120;-69
2022/04/16 11:13:30;;;;;;;0.45;0.45;;;16.40;75.30;;;;;;4440600;32;20065;-68
2022/04/16 11:15:57;;;;;;;0.32;0.32;;;16.40;74.50;;;;;;4437861;32;20057;-68
2022/04/16 11:18:22;;;;;;;0.40;0.40;;;16.60;75.00;;;;;;4441122;32;20430;-69
2022/04/16 11:20:56;;;;;;;0.40;0.40;;;17.00;73.70;;;;;;4438755;32;20072;-69
2022/04/16 11:23:26;;;;;;;0.37;0.37;;;17.20;74.70;;;;;;4438558;32;20102;-69
2022/04/16 11:34:20;;;;;;;0.50;0.50;;;17.60;71.60;;;;;;4433327;32;20085;-70
2022/04/16 11:36:53;;;;;;;0.30;0.30;;;17.80;68.90;;;;;;4436326;32;20069;-69
2022/04/16 11:39:25;;;;;;;0.30;0.30;;;18.00;69.40;;;;;;4436399;32;20077;-69
2022/04/16 11:41:54;;;;;;;0.30;0.30;;;17.80;67.00;;;;;;4437872;32;20078;-69
2022/04/16 11:44:41;;;;;;;0.40;0.40;;;17.90;68.80;;;;;;4424145;32;20097;-70
2022/04/16 11:47:09;;;;;;;0.40;0.40;;;17.80;67.40;;;;;;4432109;32;20073;-69
2022/04/16 11:49:36;;;;;;;0.30;0.30;;;17.70;66.10;;;;;;4435026;32;20065;-69
2022/04/16 11:52:03;;;;;;;0.30;0.30;;;17.70;67.10;;;;;;4436337;32;20069;-70
2022/04/16 11:54:29;;;;;;;0.43;0.43;;;18.00;66.10;;;;;;4436956;32;20520;-70
2022/04/16 11:56:55;;;;;;;0.37;0.37;;;18.30;65.70;;;;;;4434371;32;20112;-68
2022/04/16 11:59:24;;;;;;;0.82;0.82;;;18.30;62.00;;;;;;4433357;32;20065;-69
2022/04/16 12:02:03;;;;;;;0.40;0.40;;;18.20;64.40;;;;;;4438005;32;20082;-70
2022/04/16 12:04:38;;;;;;;0.30;0.30;;;18.20;61.30;;;;;;4434122;32;20068;-69
2022/04/16 12:07:17;;;;;;;0.35;0.35;;;18.30;64.50;;;;;;4438009;32;20136;-70
2022/04/16 12:09:45;;;;;;;0.20;0.20;;;18.60;63.00;;;;;;4435526;32;20073;-69
2022/04/16 12:12:14;;;;;;;1.17;0.40;;;19.00;61.80;;;;;;4435433;32;20138;-69
2022/04/16 12:14:45;;;;;;;0.40;0.40;;;19.20;61.40;;;;;;4430235;32;20065;-69
2022/04/16 12:17:11;;;;;;;0.28;0.28;;;19.20;61.10;;;;;;4432751;32;20077;-69
2022/04/16 12:19:36;;;;;;;0.32;0.32;;;19.60;62.00;;;;;;4433999;32;20058;-69
2022/04/16 12:22:02;;;;;;;0.20;0.20;;;20.00;63.50;;;;;;4435174;32;20450;-69
2022/04/16 12:24:29;;;;;;;0.10;0.10;;;20.40;61.00;;;;;;4418829;32;20073;-70
2022/04/16 12:26:56;;;;;;;0.20;0.20;;;20.50;62.40;;;;;;4434184;32;20201;-69
2022/04/16 12:29:30;;;;;;;0.47;0.47;;;20.70;59.70;;;;;;4423195;32;20131;-69
2022/04/16 12:31:58;;;;;;;0.20;0.20;;;20.50;59.50;;;;;;4433503;32;20111;-69
2022/04/16 12:34:24;;;;;;;0.52;0.52;;;20.50;59.90;;;;;;4436118;32;20068;-69
2022/04/16 12:36:49;;;;;;;0.50;0.20;;;20.80;60.10;;;;;;4434081;32;20072;-69
2022/04/16 12:39:15;;;;;;;0.22;0.22;;;20.80;58.90;;;;;;4434142;32;20122;-69
2022/04/16 12:41:41;;;;;;;0.20;0.20;;;21.00;60.80;;;;;;4434346;32;20109;-68
2022/04/16 12:44:06;;;;;;;0.10;0.10;;;20.80;58.90;;;;;;4435082;32;20070;-68
2022/04/16 12:46:32;;;;;;;1.25;0.77;;;20.40;59.60;;;;;;4435269;32;20065;-68
2022/04/16 12:48:57;;;;;;;0.10;0.10;;;20.60;59.50;;;;;;4437839;32;20513;-69
2022/04/16 12:51:24;;;;;;;0.20;0.20;;;21.20;56.00;;;;;;4429165;32;20335;-69
2022/04/16 12:53:49;;;;;;;0.15;0.15;;;21.50;54.70;;;;;;4430703;32;20875;-68
2022/04/16 12:56:15;;;;;;;0.10;0.10;;;21.70;56.40;;;;;;4434011;32;20127;-69
2022/04/16 12:58:40;;;;;;;0.62;0.22;;;22.00;55.70;;;;;;4435750;32;20084;-70
2022/04/16 13:01:06;;;;;;;0.10;0.10;;;21.90;53.20;;;;;;4434545;32;20131;-70
2022/04/16 13:03:32;;;;;;;0.10;0.10;;;21.80;54.10;;;;;;4436077;32;20126;-69
2022/04/16 13:05:57;;;;;;;0.10;0.10;;;22.20;52.80;;;;;;4438122;32;20795;-69
2022/04/16 13:08:24;;;;;;;0.10;0.10;;;21.90;52.70;;;;;;4434431;32;20073;-69